createdAt,value
2014-11-19T16:01:58.125Z,23.16
2014-11-19T16:03:02.752Z,23.12
2014-11-19T16:04:07.363Z,23.14
2014-11-19T16:05:11.990Z,23.25
2014-11-19T16:06:16.603Z,23.38
2014-11-19T16:07:21.231Z,23.72
2014-11-19T16:08:25.858Z,24
2014-11-19T16:09:30.500Z,24.29
2014-11-19T16:10:35.146Z,24.44
2014-11-19T16:11:40.101Z,24.73
2014-11-19T16:12:44.712Z,25
2014-11-19T16:13:49.339Z,24.91
2014-11-19T16:14:53.966Z,25
2014-11-19T16:15:58.594Z,25.12
2014-11-19T16:17:03.237Z,25.18
2014-11-19T16:18:07.959Z,25.23
2014-11-19T16:19:12.586Z,25.35
2014-11-19T16:20:17.213Z,25.36
2014-11-19T16:21:21.841Z,26
2014-11-19T16:22:26.483Z,26.35
2014-11-19T16:23:31.110Z,26.59
2014-11-19T16:24:35.755Z,26.79
2014-11-19T16:25:40.383Z,26.88
2014-11-19T16:26:45.010Z,26.93
2014-11-19T16:27:49.638Z,27.06
2014-11-19T16:28:54.265Z,27.46
2014-11-19T16:29:59.017Z,27.4
2014-11-19T16:31:03.645Z,27.3
2014-11-19T16:32:08.272Z,27.64
2014-11-19T16:33:12.899Z,27.87
2014-11-19T16:34:17.527Z,28.06
2014-11-19T16:35:22.170Z,28.02
2014-11-19T16:36:26.812Z,28.08
2014-11-19T16:37:31.439Z,27.86
2014-11-19T16:38:36.069Z,27.63
2014-11-19T16:39:40.728Z,27.59
2014-11-19T16:40:45.340Z,27.17
2014-11-19T16:41:49.967Z,27.11
2014-11-19T16:42:54.595Z,27.2
2014-11-19T16:43:59.455Z,27.46
2014-11-19T16:45:04.082Z,27.46
2014-11-19T16:46:08.726Z,27.11
2014-11-19T16:47:13.354Z,27.46
2014-11-19T16:48:17.997Z,27.9
2014-11-19T16:49:22.624Z,28.31
2014-11-19T16:50:27.252Z,28.48
2014-11-19T16:51:31.894Z,28.54
2014-11-19T16:52:36.523Z,28.67
2014-11-19T16:53:41.167Z,28.86
2014-11-19T16:54:45.809Z,28.84
2014-11-19T16:55:50.436Z,28.95
2014-11-19T16:56:55.079Z,29
2014-11-19T16:57:59.926Z,29
2014-11-19T16:59:04.553Z,28.98
2014-11-19T17:00:09.181Z,29.04
2014-11-19T17:01:13.823Z,29
2014-11-19T17:02:18.466Z,29.09
2014-11-19T17:03:23.093Z,29.11
2014-11-19T17:04:27.737Z,28.99
2014-11-19T17:05:32.364Z,29.06
2014-11-19T17:06:37.008Z,29.03
2014-11-19T17:07:41.635Z,29.04
2014-11-19T17:08:46.263Z,28.98
2014-11-19T17:09:50.922Z,29.13
2014-11-19T17:10:55.550Z,29.06
2014-11-19T17:12:00.177Z,29.08
2014-11-19T17:13:04.805Z,29.27
2014-11-19T17:14:09.431Z,29.12
2014-11-19T17:15:14.059Z,29.17
2014-11-19T17:16:18.701Z,29.04
2014-11-19T17:17:23.328Z,29.14
2014-11-19T17:18:27.956Z,29.09
2014-11-19T17:19:32.584Z,29.11
2014-11-19T17:20:37.229Z,29.14
2014-11-19T17:21:41.856Z,29.24
2014-11-19T17:22:46.483Z,29.24
2014-11-19T17:23:51.142Z,29.13
2014-11-19T17:24:55.847Z,29.14
2014-11-19T17:26:00.459Z,29.08
2014-11-19T17:27:05.102Z,29.07
2014-11-19T17:28:09.729Z,29.07
2014-11-19T17:29:14.356Z,29.01
2014-11-19T17:30:18.999Z,29.04
2014-11-19T17:31:23.627Z,29.03
2014-11-19T17:32:28.254Z,29.01
2014-11-19T17:33:32.881Z,28.98
2014-11-19T17:34:37.511Z,28.97
2014-11-19T17:35:42.139Z,29.08
2014-11-19T17:36:46.766Z,29.04
2014-11-19T17:37:51.393Z,28.97
2014-11-19T17:38:56.021Z,29.06
2014-11-19T17:40:00.648Z,28.95
2014-11-19T17:41:05.290Z,28.96
2014-11-19T17:42:09.902Z,29.04
2014-11-19T17:43:14.530Z,28.93
2014-11-19T17:44:19.172Z,28.95
2014-11-19T17:45:23.799Z,28.91
2014-11-19T17:46:28.443Z,29.02
2014-11-19T17:47:33.069Z,28.96
2014-11-19T17:48:37.699Z,29.07
2014-11-19T17:49:42.327Z,29.04
2014-11-19T17:50:46.954Z,29.03
2014-11-19T17:51:51.565Z,28.99
2014-11-19T17:52:56.240Z,28.91
2014-11-19T17:54:00.867Z,28.94
2014-11-19T17:55:05.494Z,29
2014-11-19T17:56:10.418Z,28.92
2014-11-19T17:57:16.045Z,29.01
2014-11-19T17:58:20.673Z,28.91
2014-11-19T17:59:25.316Z,28.96
2014-11-19T18:00:29.959Z,29.03
2014-11-19T18:01:34.586Z,28.98
2014-11-19T18:02:39.215Z,28.97
2014-11-19T18:03:43.843Z,29.02
2014-11-19T18:04:48.470Z,29.08
2014-11-19T18:05:53.083Z,29.06
2014-11-19T18:06:57.725Z,29
2014-11-19T18:08:02.399Z,28.97
2014-11-19T18:09:07.043Z,28.88
2014-11-19T18:10:11.686Z,28.9
2014-11-19T18:11:16.313Z,28.79
2014-11-19T18:12:20.955Z,28.86
2014-11-19T18:13:25.582Z,28.8
2014-11-19T18:14:30.210Z,28.78
2014-11-19T18:15:34.837Z,28.83
2014-11-19T18:16:39.467Z,29.12
2014-11-19T18:17:44.407Z,29.02
2014-11-19T18:18:49.331Z,29.06
2014-11-19T18:19:53.974Z,28.97
2014-11-19T18:20:58.883Z,28.96
2014-11-19T18:22:03.525Z,29
2014-11-19T18:23:08.169Z,28.98
2014-11-19T18:24:12.796Z,28.99
2014-11-19T18:25:17.423Z,28.89
2014-11-19T18:26:22.050Z,29.11
2014-11-19T18:27:26.693Z,29.03
2014-11-19T18:28:31.321Z,29.01
2014-11-19T18:29:35.947Z,28.82
2014-11-19T18:30:40.577Z,28.8
2014-11-19T18:31:45.204Z,28.92
2014-11-19T18:32:50.144Z,28.94
2014-11-19T18:33:54.772Z,28.92
2014-11-19T18:34:59.524Z,28.85
2014-11-19T18:36:04.166Z,28.92
2014-11-19T18:37:08.794Z,28.92
2014-11-19T18:38:13.421Z,29.04
2014-11-19T18:39:18.064Z,28.92
2014-11-19T18:40:22.692Z,28.93
2014-11-19T18:41:27.319Z,28.93
2014-11-19T18:42:31.946Z,28.98
2014-11-19T18:43:36.574Z,29.02
2014-11-19T18:44:41.203Z,28.93
2014-11-19T18:45:45.847Z,28.96
2014-11-19T18:46:50.474Z,28.91
2014-11-19T18:47:55.117Z,28.91
2014-11-19T18:48:59.776Z,28.85
2014-11-19T18:50:04.403Z,28.85
2014-11-19T18:51:09.031Z,28.9
2014-11-19T18:52:13.658Z,29.02
2014-11-19T18:53:18.316Z,29.02
2014-11-19T18:54:22.958Z,29
2014-11-19T18:55:27.585Z,28.93
2014-11-19T18:56:32.213Z,29.2
2014-11-19T18:57:36.841Z,29.02
2014-11-19T18:58:41.470Z,29.04
2014-11-19T18:59:46.097Z,28.92
2014-11-19T19:00:50.724Z,28.96
2014-11-19T19:01:55.352Z,28.91
2014-11-19T19:02:59.995Z,28.99
2014-11-19T19:04:04.622Z,29.02
2014-11-19T19:05:09.250Z,28.95
2014-11-19T19:06:13.877Z,29.03
2014-11-19T19:07:18.504Z,29.04
2014-11-19T19:08:23.132Z,28.92
2014-11-19T19:09:27.759Z,28.89
2014-11-19T19:10:32.386Z,28.97
2014-11-19T19:11:37.014Z,28.96
2014-11-19T19:12:41.659Z,28.96
2014-11-19T19:13:46.286Z,28.99
2014-11-19T19:14:50.913Z,28.92
2014-11-19T19:15:55.541Z,28.88
2014-11-19T19:17:00.183Z,28.85
2014-11-19T19:18:04.811Z,28.87
2014-11-19T19:19:09.437Z,28.88
2014-11-19T19:20:14.081Z,29.03
2014-11-19T19:21:18.709Z,29.01
2014-11-19T19:22:23.335Z,28.88
2014-11-19T19:23:27.963Z,28.74
2014-11-19T19:24:32.590Z,29.01
2014-11-19T19:25:37.218Z,28.98
2014-11-19T19:26:41.847Z,29.04
2014-11-19T19:27:46.475Z,28.8
2014-11-19T19:28:51.102Z,28.79
2014-11-19T19:29:55.729Z,28.82
2014-11-19T19:31:00.373Z,28.82
2014-11-19T19:32:05.000Z,28.94
2014-11-19T19:33:09.627Z,28.86
2014-11-19T19:34:14.269Z,28.96
2014-11-19T19:35:18.897Z,28.9
2014-11-19T19:36:23.524Z,28.89
2014-11-19T19:37:28.151Z,28.9
2014-11-19T19:38:32.779Z,28.86
2014-11-19T19:39:37.406Z,29.06
2014-11-19T19:40:42.035Z,29.07
2014-11-19T19:41:46.975Z,29.01
2014-11-19T19:42:51.618Z,29.04
2014-11-19T19:43:56.323Z,29.01
2014-11-19T19:45:00.951Z,28.91
2014-11-19T19:46:05.578Z,28.99
2014-11-19T19:47:10.205Z,29.04
2014-11-19T19:48:14.833Z,28.91
2014-11-19T19:49:19.460Z,28.84
2014-11-19T19:50:24.104Z,28.88
2014-11-19T19:51:28.731Z,28.93
2014-11-19T19:52:33.374Z,28.8
2014-11-19T19:53:38.001Z,28.96
2014-11-19T19:54:42.631Z,28.84
2014-11-19T19:55:47.259Z,28.87
2014-11-19T19:56:51.886Z,28.9
2014-11-19T19:57:56.513Z,28.89
2014-11-19T19:59:01.140Z,28.91
2014-11-19T20:00:05.782Z,28.83
2014-11-19T20:01:10.409Z,28.88
2014-11-19T20:02:15.037Z,28.93
2014-11-19T20:03:19.961Z,28.95
2014-11-19T20:04:24.589Z,28.9
2014-11-19T20:05:29.216Z,28.9
2014-11-19T20:06:33.843Z,28.89
2014-11-19T20:07:38.471Z,28.98
2014-11-19T20:08:43.100Z,28.91
2014-11-19T20:09:47.743Z,28.83
2014-11-19T20:10:52.449Z,28.79
2014-11-19T20:11:57.076Z,28.91
2014-11-19T20:13:01.703Z,28.84
2014-11-19T20:14:06.330Z,28.91
2014-11-19T20:15:10.957Z,28.92
2014-11-19T20:16:15.601Z,28.97
2014-11-19T20:17:20.229Z,28.84
2014-11-19T20:18:24.855Z,28.92
2014-11-19T20:19:29.498Z,28.94
2014-11-19T20:20:34.125Z,28.95
2014-11-19T20:21:38.769Z,28.88
2014-11-19T20:22:43.398Z,28.83
2014-11-19T20:23:48.088Z,28.97
2014-11-19T20:24:52.747Z,28.98
2014-11-19T20:25:57.389Z,28.94
2014-11-19T20:27:02.017Z,28.88
2014-11-19T20:28:06.660Z,28.92
2014-11-19T20:29:11.287Z,28.93
2014-11-19T20:30:15.929Z,28.96
2014-11-19T20:31:20.557Z,28.81
2014-11-19T20:32:25.184Z,28.98
2014-11-19T20:33:29.811Z,28.94
2014-11-19T20:34:34.439Z,28.92
2014-11-19T20:35:39.082Z,29.02
2014-11-19T20:36:43.711Z,28.99
2014-11-19T20:37:48.339Z,28.92
2014-11-19T20:38:52.966Z,28.96
2014-11-19T20:39:57.594Z,29.11
2014-11-19T20:41:02.221Z,28.83
2014-11-19T20:42:06.848Z,29
2014-11-19T20:43:11.491Z,29
2014-11-19T20:44:16.119Z,28.96
2014-11-19T20:45:20.761Z,29.02
2014-11-19T20:46:25.388Z,28.92
2014-11-19T20:47:30.016Z,28.84
2014-11-19T20:48:34.643Z,28.96
2014-11-19T20:49:39.271Z,28.91
2014-11-19T20:50:43.899Z,28.97
2014-11-19T20:51:48.527Z,28.9
2014-11-19T20:52:53.155Z,28.96
2014-11-19T20:53:57.782Z,28.92
2014-11-19T20:55:02.409Z,28.85
2014-11-19T20:56:07.052Z,28.79
2014-11-19T20:57:11.679Z,28.91
2014-11-19T20:58:16.604Z,28.81
2014-11-19T20:59:21.231Z,28.9
2014-11-19T21:00:25.858Z,28.8
2014-11-19T21:01:30.486Z,28.8
2014-11-19T21:02:35.128Z,28.86
2014-11-19T21:03:39.755Z,28.94
2014-11-19T21:04:44.385Z,29.01
2014-11-19T21:05:49.028Z,29.04
2014-11-19T21:06:53.969Z,28.89
2014-11-19T21:07:58.689Z,28.88
2014-11-19T21:09:03.316Z,28.86
2014-11-19T21:10:07.943Z,28.91
2014-11-19T21:11:12.587Z,28.91
2014-11-19T21:12:17.526Z,28.94
2014-11-19T21:13:22.153Z,28.89
2014-11-19T21:14:26.860Z,28.83
2014-11-19T21:15:31.487Z,28.87
2014-11-19T21:16:36.130Z,28.79
2014-11-19T21:17:41.742Z,28.97
2014-11-19T21:18:46.371Z,29
2014-11-19T21:19:50.999Z,29.04
2014-11-19T21:20:55.626Z,28.93
2014-11-19T21:22:00.254Z,28.97
2014-11-19T21:23:04.880Z,28.95
2014-11-19T21:24:09.508Z,28.94
2014-11-19T21:25:14.135Z,28.93
2014-11-19T21:26:18.762Z,28.88
2014-11-19T21:27:23.390Z,28.93
2014-11-19T21:28:28.017Z,28.77
2014-11-19T21:29:32.645Z,28.84
2014-11-19T21:30:37.272Z,28.92
2014-11-19T21:31:41.899Z,29.01
2014-11-19T21:32:46.529Z,28.91
2014-11-19T21:33:51.171Z,28.92
2014-11-19T21:34:55.798Z,28.98
2014-11-19T21:36:00.442Z,29.01
2014-11-19T21:37:05.052Z,28.86
2014-11-19T21:38:09.680Z,28.83
2014-11-19T21:39:14.308Z,28.81
2014-11-19T21:40:18.935Z,28.87
2014-11-19T21:41:23.578Z,29.06
2014-11-19T21:42:28.205Z,29.01
2014-11-19T21:43:32.145Z,29.1
2014-11-19T21:44:36.772Z,28.9
2014-11-19T21:45:41.385Z,28.84
2014-11-19T21:46:46.029Z,28.87
2014-11-19T21:47:50.657Z,28.84
2014-11-19T21:48:55.284Z,28.78
2014-11-19T21:50:00.114Z,28.75
2014-11-19T21:51:04.742Z,28.83
2014-11-19T21:52:09.368Z,29.02
2014-11-19T21:53:13.996Z,28.84
2014-11-19T21:54:18.639Z,28.93
2014-11-19T21:55:23.298Z,28.77
2014-11-19T21:56:27.925Z,28.76
2014-11-19T21:57:31.865Z,29
2014-11-19T21:58:36.492Z,28.84
2014-11-19T21:59:41.119Z,28.94
2014-11-19T22:00:45.749Z,29.06
2014-11-19T22:01:50.424Z,28.97
2014-11-19T22:02:55.050Z,28.98
2014-11-19T22:04:00.146Z,28.87
2014-11-19T22:05:04.789Z,29.04
2014-11-19T22:06:09.417Z,28.93
2014-11-19T22:07:14.044Z,28.86
2014-11-19T22:08:19.655Z,28.86
2014-11-19T22:09:24.596Z,28.92
2014-11-19T22:10:29.223Z,28.95
2014-11-19T22:11:33.850Z,28.91
2014-11-19T22:12:38.478Z,28.78
2014-11-19T22:13:43.105Z,28.92
2014-11-19T22:14:47.735Z,28.83
2014-11-19T22:15:52.378Z,28.89
2014-11-19T22:16:57.006Z,28.75
2014-11-19T22:18:01.633Z,28.78
2014-11-19T22:19:06.259Z,28.92
2014-11-19T22:20:10.902Z,28.91
2014-11-19T22:21:15.514Z,28.85
2014-11-19T22:22:20.172Z,28.95
2014-11-19T22:23:24.800Z,28.93
2014-11-19T22:24:29.411Z,28.94
2014-11-19T22:25:35.038Z,28.88
2014-11-19T22:26:39.682Z,28.89
2014-11-19T22:27:44.310Z,28.86
2014-11-19T22:28:48.938Z,28.92
2014-11-19T22:29:53.550Z,28.92
2014-11-19T22:30:58.178Z,29
2014-11-19T22:32:02.805Z,29.01
2014-11-19T22:33:07.432Z,29.03
2014-11-19T22:34:12.059Z,28.94
2014-11-19T22:35:16.687Z,28.81
2014-11-19T22:36:21.314Z,28.95
2014-11-19T22:37:25.958Z,28.87
2014-11-19T22:38:30.585Z,28.99
2014-11-19T22:39:35.212Z,28.82
2014-11-19T22:40:39.839Z,28.66
2014-11-19T22:41:44.466Z,28.84
2014-11-19T22:42:49.096Z,28.85
2014-11-19T22:43:53.730Z,28.96
2014-11-19T22:44:58.664Z,28.96
2014-11-19T22:46:03.301Z,28.88
2014-11-19T22:47:07.938Z,28.92
2014-11-19T22:48:12.576Z,28.77
2014-11-19T22:49:17.209Z,28.94
2014-11-19T22:50:21.840Z,28.9
2014-11-19T22:51:26.471Z,28.88
2014-11-19T22:52:31.116Z,28.82
2014-11-19T22:53:35.747Z,28.87
2014-11-19T22:54:40.408Z,28.92
2014-11-19T22:55:45.053Z,28.84
2014-11-19T22:56:49.685Z,28.8
2014-11-19T22:57:54.314Z,28.83
2014-11-19T22:58:58.973Z,28.79
2014-11-19T23:00:03.601Z,28.65
2014-11-19T23:01:08.229Z,28.89
2014-11-19T23:02:12.856Z,28.87
2014-11-19T23:03:17.484Z,28.66
2014-11-19T23:04:22.128Z,28.7
2014-11-19T23:05:26.739Z,28.66
2014-11-19T23:06:31.366Z,28.8
2014-11-19T23:07:35.994Z,28.81
2014-11-19T23:08:40.622Z,28.83
2014-11-19T23:09:45.250Z,28.67
2014-11-19T23:10:49.880Z,28.82
2014-11-19T23:11:54.506Z,28.78
2014-11-19T23:12:59.150Z,28.82
2014-11-19T23:14:03.777Z,28.81
2014-11-19T23:15:08.405Z,28.79
2014-11-19T23:16:13.032Z,28.75
2014-11-19T23:17:17.659Z,28.95
2014-11-19T23:18:22.286Z,28.88
2014-11-19T23:19:26.914Z,28.98
2014-11-19T23:20:31.541Z,28.92
2014-11-19T23:21:36.168Z,28.86
2014-11-19T23:22:40.796Z,28.81
2014-11-19T23:23:45.454Z,28.88
2014-11-19T23:24:50.084Z,28.84
2014-11-19T23:25:54.711Z,28.91
2014-11-19T23:26:59.338Z,28.86
2014-11-19T23:28:03.965Z,28.84
2014-11-19T23:29:08.593Z,28.92
2014-11-19T23:30:13.221Z,28.93
2014-11-19T23:31:17.847Z,29.06
2014-11-19T23:32:22.475Z,28.92
2014-11-19T23:33:27.102Z,28.83
2014-11-19T23:34:31.729Z,28.82
2014-11-19T23:35:36.357Z,28.83
2014-11-19T23:36:40.984Z,28.8
2014-11-19T23:37:45.612Z,28.9
2014-11-19T23:38:50.241Z,28.86
2014-11-19T23:39:54.869Z,28.78
2014-11-19T23:40:59.512Z,28.72
2014-11-19T23:42:04.138Z,28.81
2014-11-19T23:43:08.782Z,28.85
2014-11-19T23:44:13.409Z,28.81
2014-11-19T23:45:18.052Z,28.77
2014-11-19T23:46:22.679Z,28.75
2014-11-19T23:47:26.619Z,28.9
2014-11-19T23:48:31.356Z,28.95
2014-11-19T23:49:36.202Z,29.03
2014-11-19T23:50:40.861Z,29.06
2014-11-19T23:51:45.488Z,28.8
2014-11-19T23:52:50.115Z,28.82
2014-11-19T23:53:54.745Z,28.78
2014-11-19T23:54:59.372Z,28.92
2014-11-19T23:56:04.030Z,28.93
2014-11-19T23:57:08.658Z,28.88
2014-11-19T23:58:13.285Z,28.71
2014-11-19T23:59:17.928Z,28.68
